sensor_id;sensor_type;location;lat;lon;timestamp;P1;durP1;ratioP1;P2;durP2;ratioP2
43150;SDS011;28755;51.478;5.702;2023-05-10T00:01:53;13.98;;;8.20;;
43150;SDS011;28755;51.478;5.702;2023-05-10T00:04:19;13.35;;;8.50;;
43150;SDS011;28755;51.478;5.702;2023-05-10T00:06:45;14.40;;;8.95;;
43150;SDS011;28755;51.478;5.702;2023-05-10T00:09:11;13.02;;;9.32;;
43150;SDS011;28755;51.478;5.702;2023-05-10T00:11:36;13.02;;;9.30;;
43150;SDS011;28755;51.478;5.702;2023-05-10T00:14:02;14.18;;;10.68;;
43150;SDS011;28755;51.478;5.702;2023-05-10T00:16:28;18.42;;;10.38;;
43150;SDS011;28755;51.478;5.702;2023-05-10T00:18:53;14.82;;;10.15;;
43150;SDS011;28755;51.478;5.702;2023-05-10T00:21:19;17.65;;;11.70;;
43150;SDS011;28755;51.478;5.702;2023-05-10T00:23:44;16.35;;;11.05;;
43150;SDS011;28755;51.478;5.702;2023-05-10T00:26:10;15.35;;;11.20;;
43150;SDS011;28755;51.478;5.702;2023-05-10T00:28:36;16.75;;;12.02;;
43150;SDS011;28755;51.478;5.702;2023-05-10T00:31:02;17.27;;;11.85;;
43150;SDS011;28755;51.478;5.702;2023-05-10T00:33:27;17.25;;;12.30;;
43150;SDS011;28755;51.478;5.702;2023-05-10T00:35:53;19.02;;;13.90;;
43150;SDS011;28755;51.478;5.702;2023-05-10T00:38:18;20.00;;;12.50;;
43150;SDS011;28755;51.478;5.702;2023-05-10T00:40:44;21.60;;;13.80;;
43150;SDS011;28755;51.478;5.702;2023-05-10T00:43:10;19.45;;;13.23;;
43150;SDS011;28755;51.478;5.702;2023-05-10T00:45:35;18.90;;;13.70;;
43150;SDS011;28755;51.478;5.702;2023-05-10T00:48:02;22.40;;;14.70;;
43150;SDS011;28755;51.478;5.702;2023-05-10T00:50:28;19.67;;;14.05;;
43150;SDS011;28755;51.478;5.702;2023-05-10T00:52:55;21.95;;;14.60;;
43150;SDS011;28755;51.478;5.702;2023-05-10T00:55:22;25.92;;;16.20;;
43150;SDS011;28755;51.478;5.702;2023-05-10T00:57:48;23.25;;;16.02;;
43150;SDS011;28755;51.478;5.702;2023-05-10T01:00:14;24.08;;;17.02;;
43150;SDS011;28755;51.478;5.702;2023-05-10T01:02:43;24.85;;;16.73;;
43150;SDS011;28755;51.478;5.702;2023-05-10T01:05:10;24.75;;;17.13;;
43150;SDS011;28755;51.478;5.702;2023-05-10T01:07:36;33.10;;;19.60;;
43150;SDS011;28755;51.478;5.702;2023-05-10T01:10:02;34.50;;;21.38;;
43150;SDS011;28755;51.478;5.702;2023-05-10T01:12:27;32.42;;;21.40;;
43150;SDS011;28755;51.478;5.702;2023-05-10T01:14:53;32.92;;;21.92;;
43150;SDS011;28755;51.478;5.702;2023-05-10T01:17:19;40.67;;;24.45;;
43150;SDS011;28755;51.478;5.702;2023-05-10T01:19:46;36.78;;;24.08;;
43150;SDS011;28755;51.478;5.702;2023-05-10T01:33:39;44.30;;;27.65;;
43150;SDS011;28755;51.478;5.702;2023-05-10T01:36:26;46.97;;;27.52;;
43150;SDS011;28755;51.478;5.702;2023-05-10T01:44:33;58.35;;;32.30;;
43150;SDS011;28755;51.478;5.702;2023-05-10T01:49:43;83.20;;;39.97;;
43150;SDS011;28755;51.478;5.702;2023-05-10T01:52:15;82.80;;;39.97;;
43150;SDS011;28755;51.478;5.702;2023-05-10T01:54:52;81.60;;;38.50;;
43150;SDS011;28755;51.478;5.702;2023-05-10T01:57:20;86.82;;;40.38;;
43150;SDS011;28755;51.478;5.702;2023-05-10T01:59:50;92.10;;;42.45;;
43150;SDS011;28755;51.478;5.702;2023-05-10T02:02:17;78.32;;;38.50;;
43150;SDS011;28755;51.478;5.702;2023-05-10T02:04:45;87.68;;;41.83;;
43150;SDS011;28755;51.478;5.702;2023-05-10T02:07:12;77.30;;;39.80;;
43150;SDS011;28755;51.478;5.702;2023-05-10T02:09:39;79.35;;;37.75;;
43150;SDS011;28755;51.478;5.702;2023-05-10T02:12:06;82.15;;;39.20;;
43150;SDS011;28755;51.478;5.702;2023-05-10T02:14:34;89.60;;;41.40;;
43150;SDS011;28755;51.478;5.702;2023-05-10T02:17:01;82.97;;;40.40;;
43150;SDS011;28755;51.478;5.702;2023-05-10T02:19:29;82.57;;;40.45;;
43150;SDS011;28755;51.478;5.702;2023-05-10T02:21:57;89.40;;;42.80;;
43150;SDS011;28755;51.478;5.702;2023-05-10T02:24:24;88.30;;;42.58;;
43150;SDS011;28755;51.478;5.702;2023-05-10T02:26:51;85.45;;;42.25;;
43150;SDS011;28755;51.478;5.702;2023-05-10T02:29:18;91.68;;;43.42;;
43150;SDS011;28755;51.478;5.702;2023-05-10T02:31:44;97.75;;;44.53;;
43150;SDS011;28755;51.478;5.702;2023-05-10T02:34:11;85.90;;;43.25;;
43150;SDS011;28755;51.478;5.702;2023-05-10T02:36:38;90.85;;;42.28;;
43150;SDS011;28755;51.478;5.702;2023-05-10T02:39:05;94.47;;;44.50;;
43150;SDS011;28755;51.478;5.702;2023-05-10T02:41:35;87.28;;;44.30;;
43150;SDS011;28755;51.478;5.702;2023-05-10T02:44:01;93.45;;;46.80;;
43150;SDS011;28755;51.478;5.702;2023-05-10T02:46:28;86.00;;;45.28;;
43150;SDS011;28755;51.478;5.702;2023-05-10T02:48:54;92.55;;;46.03;;
43150;SDS011;28755;51.478;5.702;2023-05-10T02:51:20;89.70;;;45.83;;
43150;SDS011;28755;51.478;5.702;2023-05-10T02:53:49;87.70;;;45.35;;
43150;SDS011;28755;51.478;5.702;2023-05-10T02:56:40;91.90;;;46.13;;
43150;SDS011;28755;51.478;5.702;2023-05-10T02:59:07;96.90;;;43.55;;
43150;SDS011;28755;51.478;5.702;2023-05-10T03:01:33;85.90;;;45.38;;
43150;SDS011;28755;51.478;5.702;2023-05-10T03:03:59;88.03;;;46.42;;
43150;SDS011;28755;51.478;5.702;2023-05-10T03:06:25;90.65;;;46.45;;
43150;SDS011;28755;51.478;5.702;2023-05-10T03:08:50;90.82;;;47.00;;
43150;SDS011;28755;51.478;5.702;2023-05-10T03:11:32;87.63;;;45.40;;
43150;SDS011;28755;51.478;5.702;2023-05-10T03:17:23;99.07;;;48.38;;
43150;SDS011;28755;51.478;5.702;2023-05-10T03:19:56;90.28;;;47.35;;
43150;SDS011;28755;51.478;5.702;2023-05-10T03:22:32;94.43;;;47.97;;
43150;SDS011;28755;51.478;5.702;2023-05-10T03:25:04;91.57;;;47.47;;
43150;SDS011;28755;51.478;5.702;2023-05-10T03:27:31;87.82;;;45.53;;
43150;SDS011;28755;51.478;5.702;2023-05-10T03:29:58;86.43;;;45.67;;
43150;SDS011;28755;51.478;5.702;2023-05-10T03:32:26;81.22;;;45.85;;
43150;SDS011;28755;51.478;5.702;2023-05-10T03:34:54;85.40;;;45.05;;
43150;SDS011;28755;51.478;5.702;2023-05-10T03:37:19;88.50;;;45.83;;
43150;SDS011;28755;51.478;5.702;2023-05-10T03:39:45;84.93;;;45.83;;
43150;SDS011;28755;51.478;5.702;2023-05-10T03:42:10;91.45;;;47.00;;
43150;SDS011;28755;51.478;5.702;2023-05-10T03:44:36;85.13;;;45.08;;
43150;SDS011;28755;51.478;5.702;2023-05-10T03:47:03;91.68;;;46.58;;
43150;SDS011;28755;51.478;5.702;2023-05-10T03:49:29;87.13;;;46.08;;
43150;SDS011;28755;51.478;5.702;2023-05-10T03:51:54;97.50;;;46.95;;
43150;SDS011;28755;51.478;5.702;2023-05-10T03:54:20;90.93;;;46.83;;
43150;SDS011;28755;51.478;5.702;2023-05-10T03:56:46;93.40;;;45.97;;
43150;SDS011;28755;51.478;5.702;2023-05-10T03:59:13;82.50;;;46.05;;
43150;SDS011;28755;51.478;5.702;2023-05-10T04:01:38;92.43;;;46.20;;
43150;SDS011;28755;51.478;5.702;2023-05-10T04:04:04;87.25;;;44.88;;
43150;SDS011;28755;51.478;5.702;2023-05-10T04:06:29;92.10;;;45.55;;
43150;SDS011;28755;51.478;5.702;2023-05-10T04:08:55;80.55;;;43.72;;
43150;SDS011;28755;51.478;5.702;2023-05-10T04:11:24;88.30;;;45.60;;
43150;SDS011;28755;51.478;5.702;2023-05-10T04:13:49;88.03;;;44.85;;
43150;SDS011;28755;51.478;5.702;2023-05-10T04:16:15;83.40;;;44.95;;
43150;SDS011;28755;51.478;5.702;2023-05-10T04:18:41;89.18;;;45.60;;
43150;SDS011;28755;51.478;5.702;2023-05-10T04:21:12;91.50;;;46.58;;
43150;SDS011;28755;51.478;5.702;2023-05-10T04:23:38;84.55;;;43.85;;
43150;SDS011;28755;51.478;5.702;2023-05-10T04:26:04;90.00;;;46.00;;
43150;SDS011;28755;51.478;5.702;2023-05-10T04:28:30;85.28;;;43.65;;
43150;SDS011;28755;51.478;5.702;2023-05-10T04:31:05;87.32;;;45.42;;
43150;SDS011;28755;51.478;5.702;2023-05-10T04:33:32;84.10;;;43.80;;
43150;SDS011;28755;51.478;5.702;2023-05-10T04:35:58;84.85;;;44.80;;
43150;SDS011;28755;51.478;5.702;2023-05-10T04:38:24;91.05;;;45.72;;
43150;SDS011;28755;51.478;5.702;2023-05-10T04:40:50;93.57;;;45.63;;
43150;SDS011;28755;51.478;5.702;2023-05-10T04:43:16;88.00;;;43.30;;
43150;SDS011;28755;51.478;5.702;2023-05-10T04:45:41;96.60;;;46.15;;
43150;SDS011;28755;51.478;5.702;2023-05-10T04:48:07;98.13;;;45.65;;
43150;SDS011;28755;51.478;5.702;2023-05-10T04:54:00;110.47;;;48.28;;
43150;SDS011;28755;51.478;5.702;2023-05-10T04:56:26;119.90;;;47.38;;
43150;SDS011;28755;51.478;5.702;2023-05-10T04:58:51;112.10;;;49.38;;
43150;SDS011;28755;51.478;5.702;2023-05-10T05:01:17;125.00;;;50.13;;
43150;SDS011;28755;51.478;5.702;2023-05-10T05:03:43;142.27;;;56.13;;
43150;SDS011;28755;51.478;5.702;2023-05-10T05:06:08;145.63;;;57.80;;
43150;SDS011;28755;51.478;5.702;2023-05-10T05:08:34;154.57;;;56.45;;
43150;SDS011;28755;51.478;5.702;2023-05-10T05:10:59;147.57;;;56.60;;
43150;SDS011;28755;51.478;5.702;2023-05-10T05:13:25;157.45;;;58.58;;
43150;SDS011;28755;51.478;5.702;2023-05-10T05:15:51;147.45;;;59.22;;
43150;SDS011;28755;51.478;5.702;2023-05-10T05:18:16;127.65;;;55.15;;
43150;SDS011;28755;51.478;5.702;2023-05-10T05:20:42;127.85;;;57.15;;
43150;SDS011;28755;51.478;5.702;2023-05-10T05:23:07;108.90;;;50.20;;
43150;SDS011;28755;51.478;5.702;2023-05-10T05:25:33;116.10;;;51.30;;
43150;SDS011;28755;51.478;5.702;2023-05-10T05:27:59;107.47;;;49.08;;
43150;SDS011;28755;51.478;5.702;2023-05-10T05:30:24;95.93;;;45.88;;
43150;SDS011;28755;51.478;5.702;2023-05-10T05:32:50;94.20;;;45.83;;
43150;SDS011;28755;51.478;5.702;2023-05-10T05:35:16;84.97;;;43.28;;
43150;SDS011;28755;51.478;5.702;2023-05-10T05:37:41;86.47;;;43.25;;
43150;SDS011;28755;51.478;5.702;2023-05-10T05:40:07;89.43;;;42.53;;
43150;SDS011;28755;51.478;5.702;2023-05-10T05:42:33;78.45;;;40.13;;
43150;SDS011;28755;51.478;5.702;2023-05-10T05:44:59;90.00;;;42.25;;
43150;SDS011;28755;51.478;5.702;2023-05-10T05:47:24;83.53;;;41.60;;
43150;SDS011;28755;51.478;5.702;2023-05-10T05:49:51;79.63;;;40.22;;
43150;SDS011;28755;51.478;5.702;2023-05-10T05:52:16;77.72;;;38.58;;
43150;SDS011;28755;51.478;5.702;2023-05-10T05:54:42;74.22;;;38.25;;
43150;SDS011;28755;51.478;5.702;2023-05-10T05:57:08;72.22;;;37.97;;
43150;SDS011;28755;51.478;5.702;2023-05-10T05:59:34;66.32;;;37.72;;
43150;SDS011;28755;51.478;5.702;2023-05-10T06:01:59;67.82;;;38.03;;
43150;SDS011;28755;51.478;5.702;2023-05-10T06:04:25;64.50;;;35.75;;
43150;SDS011;28755;51.478;5.702;2023-05-10T06:06:51;65.50;;;36.47;;
43150;SDS011;28755;51.478;5.702;2023-05-10T06:09:16;65.13;;;35.90;;
43150;SDS011;28755;51.478;5.702;2023-05-10T06:11:42;65.05;;;35.70;;
43150;SDS011;28755;51.478;5.702;2023-05-10T06:14:07;63.92;;;36.25;;
43150;SDS011;28755;51.478;5.702;2023-05-10T06:16:33;66.03;;;35.78;;
43150;SDS011;28755;51.478;5.702;2023-05-10T06:18:59;62.88;;;34.22;;
43150;SDS011;28755;51.478;5.702;2023-05-10T06:21:25;59.30;;;32.92;;
43150;SDS011;28755;51.478;5.702;2023-05-10T06:23:50;61.92;;;33.08;;
43150;SDS011;28755;51.478;5.702;2023-05-10T06:26:16;58.03;;;31.38;;
43150;SDS011;28755;51.478;5.702;2023-05-10T06:28:42;52.63;;;30.67;;
43150;SDS011;28755;51.478;5.702;2023-05-10T06:31:07;50.95;;;29.88;;
43150;SDS011;28755;51.478;5.702;2023-05-10T06:33:33;52.40;;;31.00;;
43150;SDS011;28755;51.478;5.702;2023-05-10T06:35:59;52.53;;;31.08;;
43150;SDS011;28755;51.478;5.702;2023-05-10T06:38:25;51.90;;;30.60;;
43150;SDS011;28755;51.478;5.702;2023-05-10T06:40:51;49.15;;;30.08;;
43150;SDS011;28755;51.478;5.702;2023-05-10T06:43:16;45.00;;;28.42;;
43150;SDS011;28755;51.478;5.702;2023-05-10T06:45:42;51.83;;;29.27;;
43150;SDS011;28755;51.478;5.702;2023-05-10T06:48:08;46.28;;;28.92;;
43150;SDS011;28755;51.478;5.702;2023-05-10T06:50:33;49.03;;;29.55;;
43150;SDS011;28755;51.478;5.702;2023-05-10T06:52:59;45.90;;;28.23;;
43150;SDS011;28755;51.478;5.702;2023-05-10T06:55:26;47.15;;;27.15;;
43150;SDS011;28755;51.478;5.702;2023-05-10T06:57:52;45.90;;;27.88;;
43150;SDS011;28755;51.478;5.702;2023-05-10T07:00:18;43.40;;;27.73;;
43150;SDS011;28755;51.478;5.702;2023-05-10T07:02:44;44.58;;;28.10;;
43150;SDS011;28755;51.478;5.702;2023-05-10T07:05:10;49.10;;;27.55;;
43150;SDS011;28755;51.478;5.702;2023-05-10T07:07:36;47.13;;;27.90;;
43150;SDS011;28755;51.478;5.702;2023-05-10T07:10:02;46.15;;;27.63;;
43150;SDS011;28755;51.478;5.702;2023-05-10T07:12:28;44.58;;;28.10;;
43150;SDS011;28755;51.478;5.702;2023-05-10T07:14:53;45.45;;;28.55;;
43150;SDS011;28755;51.478;5.702;2023-05-10T07:17:19;42.88;;;27.42;;
43150;SDS011;28755;51.478;5.702;2023-05-10T07:19:44;44.15;;;27.85;;
43150;SDS011;28755;51.478;5.702;2023-05-10T07:22:10;44.92;;;28.83;;
43150;SDS011;28755;51.478;5.702;2023-05-10T07:24:36;46.58;;;28.58;;
43150;SDS011;28755;51.478;5.702;2023-05-10T07:27:02;46.10;;;28.95;;
43150;SDS011;28755;51.478;5.702;2023-05-10T07:29:27;46.38;;;28.55;;
43150;SDS011;28755;51.478;5.702;2023-05-10T07:31:53;47.05;;;28.98;;
43150;SDS011;28755;51.478;5.702;2023-05-10T07:34:19;44.03;;;29.85;;
43150;SDS011;28755;51.478;5.702;2023-05-10T07:36:44;45.55;;;28.90;;
43150;SDS011;28755;51.478;5.702;2023-05-10T07:39:10;46.97;;;29.45;;
43150;SDS011;28755;51.478;5.702;2023-05-10T07:41:36;48.58;;;29.55;;
43150;SDS011;28755;51.478;5.702;2023-05-10T07:44:02;54.92;;;30.02;;
43150;SDS011;28755;51.478;5.702;2023-05-10T07:46:28;46.55;;;30.25;;
43150;SDS011;28755;51.478;5.702;2023-05-10T07:48:54;45.35;;;30.23;;
43150;SDS011;28755;51.478;5.702;2023-05-10T07:51:20;46.03;;;29.83;;
43150;SDS011;28755;51.478;5.702;2023-05-10T07:53:46;44.83;;;30.15;;
43150;SDS011;28755;51.478;5.702;2023-05-10T07:56:24;45.60;;;29.13;;
43150;SDS011;28755;51.478;5.702;2023-05-10T07:58:57;47.38;;;30.23;;
43150;SDS011;28755;51.478;5.702;2023-05-10T08:01:24;45.35;;;28.40;;
43150;SDS011;28755;51.478;5.702;2023-05-10T08:03:50;45.58;;;29.50;;
43150;SDS011;28755;51.478;5.702;2023-05-10T08:06:18;48.17;;;29.30;;
43150;SDS011;28755;51.478;5.702;2023-05-10T08:08:45;46.10;;;29.05;;
43150;SDS011;28755;51.478;5.702;2023-05-10T08:11:14;53.55;;;29.70;;
43150;SDS011;28755;51.478;5.702;2023-05-10T08:13:43;46.15;;;27.73;;
43150;SDS011;28755;51.478;5.702;2023-05-10T08:16:09;45.40;;;28.02;;
43150;SDS011;28755;51.478;5.702;2023-05-10T08:18:35;42.30;;;26.80;;
43150;SDS011;28755;51.478;5.702;2023-05-10T08:21:00;41.33;;;26.55;;
43150;SDS011;28755;51.478;5.702;2023-05-10T08:23:26;39.20;;;26.35;;
43150;SDS011;28755;51.478;5.702;2023-05-10T08:25:51;44.70;;;26.33;;
43150;SDS011;28755;51.478;5.702;2023-05-10T08:28:17;38.55;;;25.33;;
43150;SDS011;28755;51.478;5.702;2023-05-10T08:30:43;37.10;;;24.40;;
43150;SDS011;28755;51.478;5.702;2023-05-10T08:33:08;38.85;;;22.13;;
43150;SDS011;28755;51.478;5.702;2023-05-10T08:35:34;38.08;;;21.27;;
43150;SDS011;28755;51.478;5.702;2023-05-10T08:38:00;29.05;;;20.48;;
43150;SDS011;28755;51.478;5.702;2023-05-10T08:40:26;28.77;;;18.70;;
43150;SDS011;28755;51.478;5.702;2023-05-10T08:43:13;33.33;;;18.50;;
43150;SDS011;28755;51.478;5.702;2023-05-10T08:45:40;31.90;;;17.92;;
43150;SDS011;28755;51.478;5.702;2023-05-10T08:48:08;28.20;;;14.98;;
43150;SDS011;28755;51.478;5.702;2023-05-10T08:50:38;27.58;;;16.35;;
43150;SDS011;28755;51.478;5.702;2023-05-10T08:53:09;21.10;;;13.27;;
43150;SDS011;28755;51.478;5.702;2023-05-10T08:55:36;21.27;;;13.30;;
43150;SDS011;28755;51.478;5.702;2023-05-10T08:58:04;19.73;;;11.32;;
43150;SDS011;28755;51.478;5.702;2023-05-10T09:00:30;20.55;;;11.48;;
43150;SDS011;28755;51.478;5.702;2023-05-10T09:02:57;17.40;;;9.80;;
43150;SDS011;28755;51.478;5.702;2023-05-10T09:05:23;12.95;;;8.98;;
43150;SDS011;28755;51.478;5.702;2023-05-10T09:07:49;15.05;;;7.93;;
43150;SDS011;28755;51.478;5.702;2023-05-10T09:10:15;14.18;;;8.32;;
43150;SDS011;28755;51.478;5.702;2023-05-10T09:12:41;13.82;;;7.80;;
43150;SDS011;28755;51.478;5.702;2023-05-10T09:15:09;14.13;;;8.85;;
43150;SDS011;28755;51.478;5.702;2023-05-10T09:17:35;13.70;;;7.45;;
43150;SDS011;28755;51.478;5.702;2023-05-10T09:20:03;16.60;;;8.20;;
43150;SDS011;28755;51.478;5.702;2023-05-10T09:22:32;13.90;;;7.35;;
43150;SDS011;28755;51.478;5.702;2023-05-10T09:25:09;16.75;;;7.53;;
43150;SDS011;28755;51.478;5.702;2023-05-10T09:27:44;14.77;;;7.55;;
43150;SDS011;28755;51.478;5.702;2023-05-10T09:30:10;11.88;;;7.20;;
43150;SDS011;28755;51.478;5.702;2023-05-10T09:32:50;18.08;;;8.57;;
43150;SDS011;28755;51.478;5.702;2023-05-10T09:35:17;17.05;;;8.48;;
43150;SDS011;28755;51.478;5.702;2023-05-10T09:37:45;15.88;;;8.88;;
43150;SDS011;28755;51.478;5.702;2023-05-10T09:40:14;12.75;;;8.07;;
43150;SDS011;28755;51.478;5.702;2023-05-10T09:45:27;13.75;;;7.88;;
43150;SDS011;28755;51.478;5.702;2023-05-10T09:47:54;13.38;;;7.88;;
43150;SDS011;28755;51.478;5.702;2023-05-10T09:50:21;10.82;;;6.75;;
43150;SDS011;28755;51.478;5.702;2023-05-10T09:55:18;10.95;;;7.30;;
43150;SDS011;28755;51.478;5.702;2023-05-10T09:57:48;12.25;;;6.13;;
43150;SDS011;28755;51.478;5.702;2023-05-10T10:00:22;10.77;;;5.65;;
43150;SDS011;28755;51.478;5.702;2023-05-10T10:02:53;7.82;;;5.25;;
43150;SDS011;28755;51.478;5.702;2023-05-10T10:05:21;12.55;;;5.20;;
43150;SDS011;28755;51.478;5.702;2023-05-10T10:07:52;7.40;;;4.03;;
43150;SDS011;28755;51.478;5.702;2023-05-10T10:10:18;8.07;;;4.68;;
43150;SDS011;28755;51.478;5.702;2023-05-10T10:12:46;9.38;;;5.00;;
43150;SDS011;28755;51.478;5.702;2023-05-10T10:15:12;10.13;;;5.22;;
43150;SDS011;28755;51.478;5.702;2023-05-10T10:17:38;7.90;;;5.60;;
43150;SDS011;28755;51.478;5.702;2023-05-10T10:20:04;10.40;;;5.38;;
43150;SDS011;28755;51.478;5.702;2023-05-10T10:22:30;13.85;;;7.38;;
43150;SDS011;28755;51.478;5.702;2023-05-10T10:24:56;16.17;;;8.02;;
43150;SDS011;28755;51.478;5.702;2023-05-10T10:30:37;12.63;;;8.73;;
43150;SDS011;28755;51.478;5.702;2023-05-10T10:36:16;13.70;;;10.10;;
43150;SDS011;28755;51.478;5.702;2023-05-10T10:41:29;14.25;;;10.35;;
43150;SDS011;28755;51.478;5.702;2023-05-10T10:44:22;15.10;;;9.27;;
43150;SDS011;28755;51.478;5.702;2023-05-10T10:47:35;12.93;;;9.18;;
43150;SDS011;28755;51.478;5.702;2023-05-10T10:54:51;14.65;;;9.27;;
43150;SDS011;28755;51.478;5.702;2023-05-10T10:57:25;14.93;;;8.80;;
43150;SDS011;28755;51.478;5.702;2023-05-10T10:59:51;11.80;;;8.65;;
43150;SDS011;28755;51.478;5.702;2023-05-10T11:08:12;11.75;;;7.85;;
43150;SDS011;28755;51.478;5.702;2023-05-10T11:13:28;8.13;;;6.47;;
43150;SDS011;28755;51.478;5.702;2023-05-10T11:15:56;9.00;;;6.75;;
43150;SDS011;28755;51.478;5.702;2023-05-10T11:18:27;8.27;;;6.20;;
43150;SDS011;28755;51.478;5.702;2023-05-10T11:20:58;11.32;;;6.22;;
43150;SDS011;28755;51.478;5.702;2023-05-10T11:26:08;8.98;;;5.60;;
43150;SDS011;28755;51.478;5.702;2023-05-10T11:28:34;9.65;;;6.30;;
43150;SDS011;28755;51.478;5.702;2023-05-10T11:31:06;10.00;;;7.38;;
43150;SDS011;28755;51.478;5.702;2023-05-10T11:33:41;15.25;;;10.32;;
43150;SDS011;28755;51.478;5.702;2023-05-10T11:36:20;16.05;;;12.20;;
43150;SDS011;28755;51.478;5.702;2023-05-10T11:38:49;18.45;;;13.95;;
43150;SDS011;28755;51.478;5.702;2023-05-10T11:41:15;19.10;;;14.38;;
43150;SDS011;28755;51.478;5.702;2023-05-10T11:43:42;19.08;;;14.77;;
43150;SDS011;28755;51.478;5.702;2023-05-10T11:46:11;20.77;;;13.38;;
43150;SDS011;28755;51.478;5.702;2023-05-10T11:48:38;17.92;;;14.02;;
43150;SDS011;28755;51.478;5.702;2023-05-10T11:51:06;15.48;;;13.20;;
43150;SDS011;28755;51.478;5.702;2023-05-10T11:53:32;18.02;;;12.73;;
43150;SDS011;28755;51.478;5.702;2023-05-10T11:56:08;19.05;;;11.98;;
43150;SDS011;28755;51.478;5.702;2023-05-10T11:58:34;17.40;;;12.25;;
43150;SDS011;28755;51.478;5.702;2023-05-10T12:01:01;16.75;;;12.05;;
43150;SDS011;28755;51.478;5.702;2023-05-10T12:03:28;16.42;;;12.32;;
43150;SDS011;28755;51.478;5.702;2023-05-10T12:05:55;15.88;;;12.25;;
43150;SDS011;28755;51.478;5.702;2023-05-10T12:08:23;14.40;;;11.63;;
43150;SDS011;28755;51.478;5.702;2023-05-10T12:10:53;14.20;;;10.35;;
43150;SDS011;28755;51.478;5.702;2023-05-10T12:13:29;14.75;;;11.40;;
43150;SDS011;28755;51.478;5.702;2023-05-10T12:15:57;18.05;;;13.65;;
43150;SDS011;28755;51.478;5.702;2023-05-10T12:18:23;17.77;;;12.55;;
43150;SDS011;28755;51.478;5.702;2023-05-10T12:20:51;22.40;;;14.43;;
43150;SDS011;28755;51.478;5.702;2023-05-10T12:23:18;19.15;;;13.20;;
43150;SDS011;28755;51.478;5.702;2023-05-10T12:25:45;18.95;;;13.82;;
43150;SDS011;28755;51.478;5.702;2023-05-10T12:28:10;17.05;;;12.27;;
43150;SDS011;28755;51.478;5.702;2023-05-10T12:30:36;15.70;;;11.60;;
43150;SDS011;28755;51.478;5.702;2023-05-10T12:33:07;15.88;;;12.40;;
43150;SDS011;28755;51.478;5.702;2023-05-10T12:35:43;15.88;;;11.25;;
43150;SDS011;28755;51.478;5.702;2023-05-10T12:38:24;15.43;;;11.20;;
43150;SDS011;28755;51.478;5.702;2023-05-10T12:40:51;15.50;;;10.70;;
43150;SDS011;28755;51.478;5.702;2023-05-10T12:43:16;13.98;;;9.90;;
43150;SDS011;28755;51.478;5.702;2023-05-10T12:45:42;14.60;;;10.18;;
43150;SDS011;28755;51.478;5.702;2023-05-10T12:48:12;15.13;;;10.20;;
43150;SDS011;28755;51.478;5.702;2023-05-10T12:50:38;13.75;;;10.60;;
43150;SDS011;28755;51.478;5.702;2023-05-10T12:53:04;14.57;;;10.55;;
43150;SDS011;28755;51.478;5.702;2023-05-10T12:55:29;13.63;;;10.73;;
43150;SDS011;28755;51.478;5.702;2023-05-10T12:57:55;12.63;;;10.60;;
43150;SDS011;28755;51.478;5.702;2023-05-10T13:00:20;16.33;;;11.40;;
43150;SDS011;28755;51.478;5.702;2023-05-10T13:02:46;14.95;;;11.32;;
43150;SDS011;28755;51.478;5.702;2023-05-10T13:05:11;13.52;;;10.45;;
43150;SDS011;28755;51.478;5.702;2023-05-10T13:07:38;14.73;;;11.25;;
43150;SDS011;28755;51.478;5.702;2023-05-10T13:10:04;16.65;;;12.82;;
43150;SDS011;28755;51.478;5.702;2023-05-10T13:12:30;18.25;;;13.73;;
43150;SDS011;28755;51.478;5.702;2023-05-10T13:14:56;21.10;;;14.82;;
43150;SDS011;28755;51.478;5.702;2023-05-10T13:17:21;23.65;;;16.52;;
43150;SDS011;28755;51.478;5.702;2023-05-10T13:19:47;19.77;;;15.98;;
43150;SDS011;28755;51.478;5.702;2023-05-10T13:22:13;24.80;;;16.77;;
43150;SDS011;28755;51.478;5.702;2023-05-10T13:24:38;21.80;;;16.48;;
43150;SDS011;28755;51.478;5.702;2023-05-10T13:27:04;18.80;;;14.95;;
43150;SDS011;28755;51.478;5.702;2023-05-10T13:29:30;18.35;;;15.30;;
43150;SDS011;28755;51.478;5.702;2023-05-10T13:31:55;17.38;;;14.43;;
43150;SDS011;28755;51.478;5.702;2023-05-10T13:34:21;16.15;;;13.02;;
43150;SDS011;28755;51.478;5.702;2023-05-10T13:36:47;14.20;;;11.80;;
43150;SDS011;28755;51.478;5.702;2023-05-10T13:39:13;14.15;;;9.68;;
43150;SDS011;28755;51.478;5.702;2023-05-10T13:41:39;10.23;;;8.90;;
43150;SDS011;28755;51.478;5.702;2023-05-10T13:44:05;11.65;;;8.98;;
43150;SDS011;28755;51.478;5.702;2023-05-10T13:46:30;10.05;;;7.65;;
43150;SDS011;28755;51.478;5.702;2023-05-10T13:48:56;7.25;;;6.53;;
43150;SDS011;28755;51.478;5.702;2023-05-10T13:51:22;7.00;;;6.30;;
43150;SDS011;28755;51.478;5.702;2023-05-10T13:53:47;7.88;;;6.82;;
43150;SDS011;28755;51.478;5.702;2023-05-10T13:56:13;7.90;;;6.93;;
43150;SDS011;28755;51.478;5.702;2023-05-10T13:58:39;6.72;;;6.07;;
43150;SDS011;28755;51.478;5.702;2023-05-10T14:01:06;9.13;;;7.47;;
43150;SDS011;28755;51.478;5.702;2023-05-10T14:03:32;13.00;;;7.60;;
43150;SDS011;28755;51.478;5.702;2023-05-10T14:05:57;10.13;;;8.90;;
43150;SDS011;28755;51.478;5.702;2023-05-10T14:08:23;9.73;;;8.73;;
43150;SDS011;28755;51.478;5.702;2023-05-10T14:10:49;10.43;;;8.98;;
43150;SDS011;28755;51.478;5.702;2023-05-10T14:13:15;9.80;;;8.80;;
43150;SDS011;28755;51.478;5.702;2023-05-10T14:15:43;9.50;;;8.48;;
43150;SDS011;28755;51.478;5.702;2023-05-10T14:18:09;10.50;;;8.73;;
43150;SDS011;28755;51.478;5.702;2023-05-10T14:20:34;15.73;;;9.23;;
43150;SDS011;28755;51.478;5.702;2023-05-10T14:23:00;13.77;;;10.52;;
43150;SDS011;28755;51.478;5.702;2023-05-10T14:25:26;15.13;;;11.88;;
43150;SDS011;28755;51.478;5.702;2023-05-10T14:27:51;13.88;;;11.77;;
43150;SDS011;28755;51.478;5.702;2023-05-10T14:30:19;16.50;;;13.18;;
43150;SDS011;28755;51.478;5.702;2023-05-10T14:32:45;17.58;;;13.90;;
43150;SDS011;28755;51.478;5.702;2023-05-10T14:35:11;16.65;;;13.57;;
43150;SDS011;28755;51.478;5.702;2023-05-10T14:37:37;22.92;;;15.60;;
43150;SDS011;28755;51.478;5.702;2023-05-10T14:40:03;19.45;;;14.70;;
43150;SDS011;28755;51.478;5.702;2023-05-10T14:42:29;18.58;;;13.90;;
43150;SDS011;28755;51.478;5.702;2023-05-10T14:44:56;21.17;;;16.10;;
43150;SDS011;28755;51.478;5.702;2023-05-10T14:47:21;22.55;;;15.88;;
43150;SDS011;28755;51.478;5.702;2023-05-10T14:49:47;20.13;;;15.52;;
43150;SDS011;28755;51.478;5.702;2023-05-10T14:52:12;22.15;;;15.52;;
43150;SDS011;28755;51.478;5.702;2023-05-10T14:54:39;21.63;;;14.93;;
43150;SDS011;28755;51.478;5.702;2023-05-10T14:57:05;25.55;;;16.40;;
43150;SDS011;28755;51.478;5.702;2023-05-10T14:59:31;23.50;;;16.70;;
43150;SDS011;28755;51.478;5.702;2023-05-10T15:01:57;22.45;;;16.50;;
43150;SDS011;28755;51.478;5.702;2023-05-10T15:04:22;24.33;;;16.73;;
43150;SDS011;28755;51.478;5.702;2023-05-10T15:06:48;23.10;;;17.15;;
43150;SDS011;28755;51.478;5.702;2023-05-10T15:09:13;21.70;;;17.15;;
43150;SDS011;28755;51.478;5.702;2023-05-10T15:11:40;27.77;;;17.20;;
43150;SDS011;28755;51.478;5.702;2023-05-10T15:14:06;21.02;;;16.08;;
43150;SDS011;28755;51.478;5.702;2023-05-10T15:16:31;21.42;;;15.30;;
43150;SDS011;28755;51.478;5.702;2023-05-10T15:18:57;20.88;;;14.20;;
43150;SDS011;28755;51.478;5.702;2023-05-10T15:21:22;21.40;;;13.20;;